sensor_id;sensor_type;location;lat;lon;timestamp;P1;durP1;ratioP1;P2;durP2;ratioP2
3718;SDS011;1875;52.492;6.860;2023-05-14T00:02:19;15.97;;;11.10;;
3718;SDS011;1875;52.492;6.860;2023-05-14T00:04:47;21.27;;;11.97;;
3718;SDS011;1875;52.492;6.860;2023-05-14T00:07:15;16.13;;;11.33;;
3718;SDS011;1875;52.492;6.860;2023-05-14T00:09:43;17.60;;;11.63;;
3718;SDS011;1875;52.492;6.860;2023-05-14T00:12:10;18.23;;;12.50;;
3718;SDS011;1875;52.492;6.860;2023-05-14T00:14:38;17.10;;;11.83;;
3718;SDS011;1875;52.492;6.860;2023-05-14T00:17:06;23.50;;;12.67;;
3718;SDS011;1875;52.492;6.860;2023-05-14T00:19:35;21.47;;;12.40;;
3718;SDS011;1875;52.492;6.860;2023-05-14T00:22:02;20.43;;;12.70;;
3718;SDS011;1875;52.492;6.860;2023-05-14T00:24:30;22.60;;;13.33;;
3718;SDS011;1875;52.492;6.860;2023-05-14T00:26:58;17.80;;;14.03;;
3718;SDS011;1875;52.492;6.860;2023-05-14T00:29:26;22.37;;;13.40;;
3718;SDS011;1875;52.492;6.860;2023-05-14T00:31:53;17.40;;;13.70;;
3718;SDS011;1875;52.492;6.860;2023-05-14T00:34:21;19.37;;;14.43;;
3718;SDS011;1875;52.492;6.860;2023-05-14T00:36:50;23.17;;;14.47;;
3718;SDS011;1875;52.492;6.860;2023-05-14T00:39:18;20.17;;;13.93;;
3718;SDS011;1875;52.492;6.860;2023-05-14T00:41:46;23.80;;;17.00;;
3718;SDS011;1875;52.492;6.860;2023-05-14T00:44:14;19.03;;;14.37;;
3718;SDS011;1875;52.492;6.860;2023-05-14T00:46:41;25.37;;;14.43;;
3718;SDS011;1875;52.492;6.860;2023-05-14T00:49:09;22.53;;;15.73;;
3718;SDS011;1875;52.492;6.860;2023-05-14T00:51:37;21.67;;;14.50;;
3718;SDS011;1875;52.492;6.860;2023-05-14T00:54:08;25.20;;;16.37;;
3718;SDS011;1875;52.492;6.860;2023-05-14T00:56:36;20.70;;;13.77;;
3718;SDS011;1875;52.492;6.860;2023-05-14T00:59:03;25.40;;;14.77;;
3718;SDS011;1875;52.492;6.860;2023-05-14T01:01:31;22.07;;;14.60;;
3718;SDS011;1875;52.492;6.860;2023-05-14T01:03:59;23.50;;;14.97;;
3718;SDS011;1875;52.492;6.860;2023-05-14T01:06:28;22.60;;;13.87;;
3718;SDS011;1875;52.492;6.860;2023-05-14T01:09:03;17.63;;;14.60;;
3718;SDS011;1875;52.492;6.860;2023-05-14T01:11:38;19.63;;;14.10;;
3718;SDS011;1875;52.492;6.860;2023-05-14T01:14:10;23.40;;;14.67;;
3718;SDS011;1875;52.492;6.860;2023-05-14T01:16:42;18.73;;;15.17;;
3718;SDS011;1875;52.492;6.860;2023-05-14T01:19:16;20.47;;;14.17;;
3718;SDS011;1875;52.492;6.860;2023-05-14T01:21:49;24.87;;;15.30;;
3718;SDS011;1875;52.492;6.860;2023-05-14T01:24:17;25.97;;;15.23;;
3718;SDS011;1875;52.492;6.860;2023-05-14T01:26:45;20.13;;;15.00;;
3718;SDS011;1875;52.492;6.860;2023-05-14T01:29:15;22.20;;;13.47;;
3718;SDS011;1875;52.492;6.860;2023-05-14T01:31:47;20.57;;;15.07;;
3718;SDS011;1875;52.492;6.860;2023-05-14T01:34:17;23.50;;;13.50;;
3718;SDS011;1875;52.492;6.860;2023-05-14T01:36:46;23.13;;;14.83;;
3718;SDS011;1875;52.492;6.860;2023-05-14T01:39:16;23.77;;;14.60;;
3718;SDS011;1875;52.492;6.860;2023-05-14T01:41:44;22.13;;;13.87;;
3718;SDS011;1875;52.492;6.860;2023-05-14T01:44:12;20.03;;;14.07;;
3718;SDS011;1875;52.492;6.860;2023-05-14T01:46:40;23.27;;;13.77;;
3718;SDS011;1875;52.492;6.860;2023-05-14T01:49:08;25.13;;;14.77;;
3718;SDS011;1875;52.492;6.860;2023-05-14T01:51:35;24.23;;;14.17;;
3718;SDS011;1875;52.492;6.860;2023-05-14T01:54:03;20.67;;;13.77;;
3718;SDS011;1875;52.492;6.860;2023-05-14T01:56:32;18.47;;;14.27;;
3718;SDS011;1875;52.492;6.860;2023-05-14T01:59:00;24.27;;;13.27;;
3718;SDS011;1875;52.492;6.860;2023-05-14T02:01:28;22.43;;;14.77;;
3718;SDS011;1875;52.492;6.860;2023-05-14T02:03:56;22.23;;;14.97;;
3718;SDS011;1875;52.492;6.860;2023-05-14T02:06:23;22.03;;;14.63;;
3718;SDS011;1875;52.492;6.860;2023-05-14T02:08:51;20.80;;;15.07;;
3718;SDS011;1875;52.492;6.860;2023-05-14T02:11:19;22.03;;;14.77;;
3718;SDS011;1875;52.492;6.860;2023-05-14T02:13:48;23.40;;;14.20;;
3718;SDS011;1875;52.492;6.860;2023-05-14T02:16:16;29.73;;;16.27;;
3718;SDS011;1875;52.492;6.860;2023-05-14T02:18:44;22.37;;;15.37;;
3718;SDS011;1875;52.492;6.860;2023-05-14T02:21:12;22.73;;;15.87;;
3718;SDS011;1875;52.492;6.860;2023-05-14T02:23:40;23.60;;;16.27;;
3718;SDS011;1875;52.492;6.860;2023-05-14T02:26:08;22.27;;;16.13;;
3718;SDS011;1875;52.492;6.860;2023-05-14T02:28:36;18.67;;;14.70;;
3718;SDS011;1875;52.492;6.860;2023-05-14T02:31:05;28.53;;;16.77;;
3718;SDS011;1875;52.492;6.860;2023-05-14T02:33:33;25.77;;;16.37;;
3718;SDS011;1875;52.492;6.860;2023-05-14T02:36:01;21.73;;;15.13;;
3718;SDS011;1875;52.492;6.860;2023-05-14T02:38:29;22.80;;;16.93;;
3718;SDS011;1875;52.492;6.860;2023-05-14T02:40:56;24.57;;;16.07;;
3718;SDS011;1875;52.492;6.860;2023-05-14T02:43:24;35.03;;;18.47;;
3718;SDS011;1875;52.492;6.860;2023-05-14T02:45:52;28.87;;;17.80;;
3718;SDS011;1875;52.492;6.860;2023-05-14T02:48:21;24.53;;;16.60;;
3718;SDS011;1875;52.492;6.860;2023-05-14T02:50:49;23.37;;;17.37;;
3718;SDS011;1875;52.492;6.860;2023-05-14T02:53:17;31.10;;;17.67;;
3718;SDS011;1875;52.492;6.860;2023-05-14T02:55:45;26.70;;;17.40;;
3718;SDS011;1875;52.492;6.860;2023-05-14T02:58:12;24.93;;;16.77;;
3718;SDS011;1875;52.492;6.860;2023-05-14T03:00:41;28.13;;;18.40;;
3718;SDS011;1875;52.492;6.860;2023-05-14T03:03:09;23.13;;;16.83;;
3718;SDS011;1875;52.492;6.860;2023-05-14T03:05:38;27.10;;;18.60;;
3718;SDS011;1875;52.492;6.860;2023-05-14T03:08:06;25.37;;;17.90;;
3718;SDS011;1875;52.492;6.860;2023-05-14T03:10:34;26.23;;;18.57;;
3718;SDS011;1875;52.492;6.860;2023-05-14T03:13:02;27.37;;;18.07;;
3718;SDS011;1875;52.492;6.860;2023-05-14T03:15:30;24.57;;;17.03;;
3718;SDS011;1875;52.492;6.860;2023-05-14T03:17:57;26.80;;;17.30;;
3718;SDS011;1875;52.492;6.860;2023-05-14T03:20:25;25.30;;;16.97;;
3718;SDS011;1875;52.492;6.860;2023-05-14T03:22:54;26.93;;;17.83;;
3718;SDS011;1875;52.492;6.860;2023-05-14T03:25:22;31.30;;;19.63;;
3718;SDS011;1875;52.492;6.860;2023-05-14T03:27:50;32.07;;;20.60;;
3718;SDS011;1875;52.492;6.860;2023-05-14T03:30:17;30.50;;;21.37;;
3718;SDS011;1875;52.492;6.860;2023-05-14T03:32:45;24.30;;;18.47;;
3718;SDS011;1875;52.492;6.860;2023-05-14T03:35:14;29.90;;;19.33;;
3718;SDS011;1875;52.492;6.860;2023-05-14T03:37:42;25.77;;;17.87;;
3718;SDS011;1875;52.492;6.860;2023-05-14T03:40:11;30.87;;;18.80;;
3718;SDS011;1875;52.492;6.860;2023-05-14T03:42:39;25.87;;;17.10;;
3718;SDS011;1875;52.492;6.860;2023-05-14T03:45:07;26.97;;;18.23;;
3718;SDS011;1875;52.492;6.860;2023-05-14T03:47:35;23.03;;;16.37;;
3718;SDS011;1875;52.492;6.860;2023-05-14T03:50:04;29.83;;;18.13;;
3718;SDS011;1875;52.492;6.860;2023-05-14T03:52:32;26.63;;;17.90;;
3718;SDS011;1875;52.492;6.860;2023-05-14T03:55:00;28.33;;;18.37;;
3718;SDS011;1875;52.492;6.860;2023-05-14T03:57:29;24.73;;;18.23;;
3718;SDS011;1875;52.492;6.860;2023-05-14T03:59:57;23.67;;;17.73;;
3718;SDS011;1875;52.492;6.860;2023-05-14T04:02:25;30.30;;;19.87;;
3718;SDS011;1875;52.492;6.860;2023-05-14T04:04:52;29.10;;;19.57;;
3718;SDS011;1875;52.492;6.860;2023-05-14T04:07:20;26.10;;;18.13;;
3718;SDS011;1875;52.492;6.860;2023-05-14T04:09:48;26.33;;;18.43;;
3718;SDS011;1875;52.492;6.860;2023-05-14T04:12:17;24.73;;;17.57;;
3718;SDS011;1875;52.492;6.860;2023-05-14T04:14:46;28.13;;;20.70;;
3718;SDS011;1875;52.492;6.860;2023-05-14T04:17:14;28.53;;;19.37;;
3718;SDS011;1875;52.492;6.860;2023-05-14T04:19:41;28.07;;;20.83;;
3718;SDS011;1875;52.492;6.860;2023-05-14T04:22:09;33.40;;;19.77;;
3718;SDS011;1875;52.492;6.860;2023-05-14T04:24:37;29.93;;;20.17;;
3718;SDS011;1875;52.492;6.860;2023-05-14T04:27:05;28.77;;;19.40;;
3718;SDS011;1875;52.492;6.860;2023-05-14T04:29:32;24.20;;;19.93;;
3718;SDS011;1875;52.492;6.860;2023-05-14T04:32:01;27.07;;;18.20;;
3718;SDS011;1875;52.492;6.860;2023-05-14T04:34:30;24.53;;;19.00;;
3718;SDS011;1875;52.492;6.860;2023-05-14T04:36:57;30.67;;;19.60;;
3718;SDS011;1875;52.492;6.860;2023-05-14T04:39:25;33.23;;;18.47;;
3718;SDS011;1875;52.492;6.860;2023-05-14T04:41:53;19.20;;;16.87;;
3718;SDS011;1875;52.492;6.860;2023-05-14T04:44:20;23.40;;;16.80;;
3718;SDS011;1875;52.492;6.860;2023-05-14T04:46:48;21.73;;;16.50;;
3718;SDS011;1875;52.492;6.860;2023-05-14T04:49:17;21.50;;;17.23;;
3718;SDS011;1875;52.492;6.860;2023-05-14T04:51:46;21.67;;;17.13;;
3718;SDS011;1875;52.492;6.860;2023-05-14T04:54:13;25.83;;;15.87;;
3718;SDS011;1875;52.492;6.860;2023-05-14T04:56:41;19.10;;;15.73;;
3718;SDS011;1875;52.492;6.860;2023-05-14T04:59:09;27.20;;;15.93;;
3718;SDS011;1875;52.492;6.860;2023-05-14T05:01:37;22.60;;;15.10;;
3718;SDS011;1875;52.492;6.860;2023-05-14T05:04:04;20.37;;;14.53;;
3718;SDS011;1875;52.492;6.860;2023-05-14T05:06:34;22.30;;;14.57;;
3718;SDS011;1875;52.492;6.860;2023-05-14T05:09:01;24.50;;;15.07;;
3718;SDS011;1875;52.492;6.860;2023-05-14T05:11:29;17.47;;;13.53;;
3718;SDS011;1875;52.492;6.860;2023-05-14T05:13:57;25.47;;;15.07;;
3718;SDS011;1875;52.492;6.860;2023-05-14T05:16:25;15.97;;;13.40;;
3718;SDS011;1875;52.492;6.860;2023-05-14T05:18:53;19.43;;;13.10;;
3718;SDS011;1875;52.492;6.860;2023-05-14T05:21:21;17.73;;;11.87;;
3718;SDS011;1875;52.492;6.860;2023-05-14T05:23:50;17.33;;;11.77;;
3718;SDS011;1875;52.492;6.860;2023-05-14T05:26:17;16.63;;;11.20;;
3718;SDS011;1875;52.492;6.860;2023-05-14T05:28:47;17.00;;;11.57;;
3718;SDS011;1875;52.492;6.860;2023-05-14T05:31:15;17.50;;;11.53;;
3718;SDS011;1875;52.492;6.860;2023-05-14T05:33:45;14.93;;;10.97;;
3718;SDS011;1875;52.492;6.860;2023-05-14T05:36:12;12.63;;;10.70;;
3718;SDS011;1875;52.492;6.860;2023-05-14T05:38:40;12.97;;;10.63;;
3718;SDS011;1875;52.492;6.860;2023-05-14T05:41:09;16.80;;;10.93;;
3718;SDS011;1875;52.492;6.860;2023-05-14T05:43:37;15.73;;;11.17;;
3718;SDS011;1875;52.492;6.860;2023-05-14T05:46:05;14.67;;;11.30;;
3718;SDS011;1875;52.492;6.860;2023-05-14T05:48:33;16.43;;;11.00;;
3718;SDS011;1875;52.492;6.860;2023-05-14T05:51:01;16.30;;;11.93;;
3718;SDS011;1875;52.492;6.860;2023-05-14T05:53:28;17.23;;;11.13;;
3718;SDS011;1875;52.492;6.860;2023-05-14T05:55:56;15.63;;;10.53;;
3718;SDS011;1875;52.492;6.860;2023-05-14T05:58:25;19.00;;;11.80;;
3718;SDS011;1875;52.492;6.860;2023-05-14T06:00:53;14.47;;;10.50;;
3718;SDS011;1875;52.492;6.860;2023-05-14T06:03:22;14.93;;;11.30;;
3718;SDS011;1875;52.492;6.860;2023-05-14T06:05:50;16.23;;;11.27;;
3718;SDS011;1875;52.492;6.860;2023-05-14T06:08:18;16.50;;;10.63;;
3718;SDS011;1875;52.492;6.860;2023-05-14T06:10:46;14.23;;;10.80;;
3718;SDS011;1875;52.492;6.860;2023-05-14T06:13:14;12.57;;;11.13;;
3718;SDS011;1875;52.492;6.860;2023-05-14T06:15:43;16.40;;;11.17;;
3718;SDS011;1875;52.492;6.860;2023-05-14T06:18:11;15.67;;;11.83;;
3718;SDS011;1875;52.492;6.860;2023-05-14T06:20:39;17.10;;;12.03;;
3718;SDS011;1875;52.492;6.860;2023-05-14T06:23:07;15.77;;;11.67;;
3718;SDS011;1875;52.492;6.860;2023-05-14T06:25:37;18.27;;;11.80;;
3718;SDS011;1875;52.492;6.860;2023-05-14T06:28:05;17.60;;;11.63;;
3718;SDS011;1875;52.492;6.860;2023-05-14T06:30:32;17.60;;;12.00;;
3718;SDS011;1875;52.492;6.860;2023-05-14T06:33:01;14.97;;;12.07;;
3718;SDS011;1875;52.492;6.860;2023-05-14T06:35:29;16.50;;;10.80;;
3718;SDS011;1875;52.492;6.860;2023-05-14T06:37:57;13.13;;;10.50;;
3718;SDS011;1875;52.492;6.860;2023-05-14T06:40:25;15.20;;;10.93;;
3718;SDS011;1875;52.492;6.860;2023-05-14T06:42:53;16.07;;;11.83;;
3718;SDS011;1875;52.492;6.860;2023-05-14T06:45:20;18.37;;;12.93;;
3718;SDS011;1875;52.492;6.860;2023-05-14T06:47:48;15.67;;;11.10;;
3718;SDS011;1875;52.492;6.860;2023-05-14T06:50:18;13.20;;;10.70;;
3718;SDS011;1875;52.492;6.860;2023-05-14T06:52:45;17.60;;;11.03;;
3718;SDS011;1875;52.492;6.860;2023-05-14T06:55:13;15.90;;;11.00;;
3718;SDS011;1875;52.492;6.860;2023-05-14T06:57:41;15.27;;;10.53;;
3718;SDS011;1875;52.492;6.860;2023-05-14T07:00:10;16.83;;;11.10;;
3718;SDS011;1875;52.492;6.860;2023-05-14T07:02:39;13.00;;;10.97;;
3718;SDS011;1875;52.492;6.860;2023-05-14T07:05:07;14.97;;;11.63;;
3718;SDS011;1875;52.492;6.860;2023-05-14T07:07:37;15.97;;;10.97;;
3718;SDS011;1875;52.492;6.860;2023-05-14T07:10:05;14.40;;;11.73;;
3718;SDS011;1875;52.492;6.860;2023-05-14T07:12:34;16.97;;;11.50;;
3718;SDS011;1875;52.492;6.860;2023-05-14T07:15:02;16.37;;;11.20;;
3718;SDS011;1875;52.492;6.860;2023-05-14T07:17:30;14.40;;;11.63;;
3718;SDS011;1875;52.492;6.860;2023-05-14T07:19:58;12.60;;;10.20;;
3718;SDS011;1875;52.492;6.860;2023-05-14T07:22:26;15.73;;;10.57;;
3718;SDS011;1875;52.492;6.860;2023-05-14T07:24:55;18.77;;;11.07;;
3718;SDS011;1875;52.492;6.860;2023-05-14T07:27:22;13.60;;;11.60;;
3718;SDS011;1875;52.492;6.860;2023-05-14T07:29:50;17.87;;;10.60;;
3718;SDS011;1875;52.492;6.860;2023-05-14T07:32:18;16.10;;;10.77;;
3718;SDS011;1875;52.492;6.860;2023-05-14T07:34:45;14.67;;;10.70;;
3718;SDS011;1875;52.492;6.860;2023-05-14T07:37:14;15.00;;;10.10;;
3718;SDS011;1875;52.492;6.860;2023-05-14T07:39:41;17.83;;;10.43;;
3718;SDS011;1875;52.492;6.860;2023-05-14T07:42:11;14.83;;;10.17;;
3718;SDS011;1875;52.492;6.860;2023-05-14T07:44:50;13.17;;;10.00;;
3718;SDS011;1875;52.492;6.860;2023-05-14T07:47:17;12.23;;;10.80;;
3718;SDS011;1875;52.492;6.860;2023-05-14T07:49:45;15.80;;;11.63;;
3718;SDS011;1875;52.492;6.860;2023-05-14T07:52:13;15.77;;;11.07;;
3718;SDS011;1875;52.492;6.860;2023-05-14T07:54:41;15.93;;;10.27;;
3718;SDS011;1875;52.492;6.860;2023-05-14T07:57:08;15.27;;;10.30;;
3718;SDS011;1875;52.492;6.860;2023-05-14T07:59:37;15.87;;;10.57;;
3718;SDS011;1875;52.492;6.860;2023-05-14T08:02:05;20.47;;;10.70;;
3718;SDS011;1875;52.492;6.860;2023-05-14T08:04:35;13.37;;;10.77;;
3718;SDS011;1875;52.492;6.860;2023-05-14T08:07:03;17.87;;;10.43;;
3718;SDS011;1875;52.492;6.860;2023-05-14T08:09:32;15.43;;;10.40;;
3718;SDS011;1875;52.492;6.860;2023-05-14T08:12:00;16.27;;;10.10;;
3718;SDS011;1875;52.492;6.860;2023-05-14T08:14:28;14.47;;;11.10;;
3718;SDS011;1875;52.492;6.860;2023-05-14T08:16:57;13.70;;;11.37;;
3718;SDS011;1875;52.492;6.860;2023-05-14T08:19:25;17.13;;;11.53;;
3718;SDS011;1875;52.492;6.860;2023-05-14T08:21:53;16.47;;;11.20;;
3718;SDS011;1875;52.492;6.860;2023-05-14T08:24:20;14.03;;;10.80;;
3718;SDS011;1875;52.492;6.860;2023-05-14T08:26:48;12.77;;;11.07;;
3718;SDS011;1875;52.492;6.860;2023-05-14T08:29:16;14.77;;;10.97;;
3718;SDS011;1875;52.492;6.860;2023-05-14T08:31:43;14.43;;;11.63;;
3718;SDS011;1875;52.492;6.860;2023-05-14T08:34:13;23.90;;;11.60;;
3718;SDS011;1875;52.492;6.860;2023-05-14T08:36:40;19.00;;;11.63;;
3718;SDS011;1875;52.492;6.860;2023-05-14T08:39:08;15.03;;;11.63;;
3718;SDS011;1875;52.492;6.860;2023-05-14T08:41:36;13.27;;;11.70;;
3718;SDS011;1875;52.492;6.860;2023-05-14T08:44:05;15.00;;;12.47;;
3718;SDS011;1875;52.492;6.860;2023-05-14T08:46:34;16.53;;;12.47;;
3718;SDS011;1875;52.492;6.860;2023-05-14T08:49:04;17.87;;;12.87;;
3718;SDS011;1875;52.492;6.860;2023-05-14T08:51:37;14.67;;;12.10;;
3718;SDS011;1875;52.492;6.860;2023-05-14T08:54:06;15.93;;;12.50;;
3718;SDS011;1875;52.492;6.860;2023-05-14T08:56:33;21.80;;;11.67;;
3718;SDS011;1875;52.492;6.860;2023-05-14T08:59:02;16.27;;;11.70;;
3718;SDS011;1875;52.492;6.860;2023-05-14T09:01:30;12.63;;;10.57;;
3718;SDS011;1875;52.492;6.860;2023-05-14T09:03:57;16.67;;;10.37;;
3718;SDS011;1875;52.492;6.860;2023-05-14T09:06:26;13.43;;;9.80;;
3718;SDS011;1875;52.492;6.860;2023-05-14T09:08:56;13.23;;;9.70;;
3718;SDS011;1875;52.492;6.860;2023-05-14T09:11:23;14.77;;;10.47;;
3718;SDS011;1875;52.492;6.860;2023-05-14T09:13:51;15.03;;;10.00;;
3718;SDS011;1875;52.492;6.860;2023-05-14T09:16:19;12.80;;;10.33;;
3718;SDS011;1875;52.492;6.860;2023-05-14T09:18:47;13.50;;;9.50;;
3718;SDS011;1875;52.492;6.860;2023-05-14T09:21:15;11.50;;;8.57;;
3718;SDS011;1875;52.492;6.860;2023-05-14T09:23:44;9.47;;;7.77;;
3718;SDS011;1875;52.492;6.860;2023-05-14T09:26:15;13.27;;;9.23;;
3718;SDS011;1875;52.492;6.860;2023-05-14T09:28:43;11.37;;;7.93;;
3718;SDS011;1875;52.492;6.860;2023-05-14T09:31:11;10.13;;;5.80;;
3718;SDS011;1875;52.492;6.860;2023-05-14T09:33:38;9.00;;;5.77;;
3718;SDS011;1875;52.492;6.860;2023-05-14T09:36:06;11.97;;;6.50;;
3718;SDS011;1875;52.492;6.860;2023-05-14T09:38:34;9.83;;;6.30;;
3718;SDS011;1875;52.492;6.860;2023-05-14T09:41:02;8.13;;;6.50;;
3718;SDS011;1875;52.492;6.860;2023-05-14T09:43:31;8.43;;;5.90;;
3718;SDS011;1875;52.492;6.860;2023-05-14T09:45:59;11.40;;;6.97;;
3718;SDS011;1875;52.492;6.860;2023-05-14T09:48:27;8.73;;;6.67;;
3718;SDS011;1875;52.492;6.860;2023-05-14T09:50:54;12.73;;;7.40;;
3718;SDS011;1875;52.492;6.860;2023-05-14T09:53:22;9.70;;;6.87;;
3718;SDS011;1875;52.492;6.860;2023-05-14T09:55:51;10.87;;;6.80;;
3718;SDS011;1875;52.492;6.860;2023-05-14T09:58:18;8.53;;;6.30;;
3718;SDS011;1875;52.492;6.860;2023-05-14T10:00:48;9.23;;;6.90;;
3718;SDS011;1875;52.492;6.860;2023-05-14T10:03:16;7.80;;;6.93;;
3718;SDS011;1875;52.492;6.860;2023-05-14T10:05:45;8.90;;;7.60;;
3718;SDS011;1875;52.492;6.860;2023-05-14T10:08:18;15.93;;;7.37;;
3718;SDS011;1875;52.492;6.860;2023-05-14T10:10:48;13.20;;;7.57;;
3718;SDS011;1875;52.492;6.860;2023-05-14T10:13:19;8.27;;;7.47;;
3718;SDS011;1875;52.492;6.860;2023-05-14T10:15:50;12.33;;;7.97;;
3718;SDS011;1875;52.492;6.860;2023-05-14T10:18:21;8.77;;;7.17;;
3718;SDS011;1875;52.492;6.860;2023-05-14T10:20:51;11.37;;;7.70;;
3718;SDS011;1875;52.492;6.860;2023-05-14T10:23:23;10.33;;;7.63;;
3718;SDS011;1875;52.492;6.860;2023-05-14T10:25:51;9.73;;;7.10;;
3718;SDS011;1875;52.492;6.860;2023-05-14T10:28:19;10.00;;;7.07;;
3718;SDS011;1875;52.492;6.860;2023-05-14T10:30:48;10.37;;;7.17;;
3718;SDS011;1875;52.492;6.860;2023-05-14T10:33:16;11.73;;;6.70;;
3718;SDS011;1875;52.492;6.860;2023-05-14T10:35:50;9.67;;;6.47;;
3718;SDS011;1875;52.492;6.860;2023-05-14T10:38:21;8.50;;;6.30;;
3718;SDS011;1875;52.492;6.860;2023-05-14T10:40:53;9.23;;;6.20;;
3718;SDS011;1875;52.492;6.860;2023-05-14T10:43:25;9.30;;;6.13;;
3718;SDS011;1875;52.492;6.860;2023-05-14T10:45:56;8.07;;;6.67;;
3718;SDS011;1875;52.492;6.860;2023-05-14T10:48:24;11.47;;;5.83;;
3718;SDS011;1875;52.492;6.860;2023-05-14T10:50:52;6.53;;;5.60;;
3718;SDS011;1875;52.492;6.860;2023-05-14T10:53:28;8.03;;;5.93;;
3718;SDS011;1875;52.492;6.860;2023-05-14T10:56:00;7.47;;;6.13;;
3718;SDS011;1875;52.492;6.860;2023-05-14T10:58:30;9.40;;;5.80;;
3718;SDS011;1875;52.492;6.860;2023-05-14T11:01:01;9.67;;;6.67;;
3718;SDS011;1875;52.492;6.860;2023-05-14T11:03:30;9.77;;;6.83;;
3718;SDS011;1875;52.492;6.860;2023-05-14T11:05:58;15.60;;;6.40;;
3718;SDS011;1875;52.492;6.860;2023-05-14T11:08:27;13.77;;;6.33;;
3718;SDS011;1875;52.492;6.860;2023-05-14T11:10:55;6.83;;;5.23;;
3718;SDS011;1875;52.492;6.860;2023-05-14T11:13:24;6.03;;;4.73;;
3718;SDS011;1875;52.492;6.860;2023-05-14T11:15:52;6.93;;;4.93;;
3718;SDS011;1875;52.492;6.860;2023-05-14T11:18:28;7.83;;;5.33;;
3718;SDS011;1875;52.492;6.860;2023-05-14T11:20:57;6.43;;;5.23;;
3718;SDS011;1875;52.492;6.860;2023-05-14T11:23:25;7.20;;;4.73;;
3718;SDS011;1875;52.492;6.860;2023-05-14T11:25:54;17.13;;;4.83;;
3718;SDS011;1875;52.492;6.860;2023-05-14T11:28:23;9.37;;;4.17;;
3718;SDS011;1875;52.492;6.860;2023-05-14T11:30:52;9.43;;;3.93;;
3718;SDS011;1875;52.492;6.860;2023-05-14T11:33:20;8.30;;;4.17;;
3718;SDS011;1875;52.492;6.860;2023-05-14T11:35:49;9.33;;;4.13;;
3718;SDS011;1875;52.492;6.860;2023-05-14T11:38:17;8.50;;;4.53;;
3718;SDS011;1875;52.492;6.860;2023-05-14T11:40:51;6.33;;;4.67;;
3718;SDS011;1875;52.492;6.860;2023-05-14T11:43:19;10.73;;;4.13;;
3718;SDS011;1875;52.492;6.860;2023-05-14T11:45:49;6.83;;;4.97;;
3718;SDS011;1875;52.492;6.860;2023-05-14T11:48:17;5.73;;;4.50;;
3718;SDS011;1875;52.492;6.860;2023-05-14T11:50:46;5.13;;;4.57;;
3718;SDS011;1875;52.492;6.860;2023-05-14T11:53:17;7.53;;;4.60;;
3718;SDS011;1875;52.492;6.860;2023-05-14T11:55:45;5.83;;;4.70;;
3718;SDS011;1875;52.492;6.860;2023-05-14T11:58:20;9.33;;;4.90;;
3718;SDS011;1875;52.492;6.860;2023-05-14T12:00:54;9.37;;;4.20;;
3718;SDS011;1875;52.492;6.860;2023-05-14T12:03:22;8.67;;;4.33;;
3718;SDS011;1875;52.492;6.860;2023-05-14T12:05:56;5.40;;;4.13;;
3718;SDS011;1875;52.492;6.860;2023-05-14T12:08:27;10.50;;;4.03;;
3718;SDS011;1875;52.492;6.860;2023-05-14T12:10:57;11.10;;;4.37;;
3718;SDS011;1875;52.492;6.860;2023-05-14T12:13:25;4.83;;;4.23;;
3718;SDS011;1875;52.492;6.860;2023-05-14T12:15:54;7.87;;;4.40;;
3718;SDS011;1875;52.492;6.860;2023-05-14T12:18:23;6.97;;;4.10;;
3718;SDS011;1875;52.492;6.860;2023-05-14T12:20:52;7.07;;;4.10;;
3718;SDS011;1875;52.492;6.860;2023-05-14T12:23:23;7.23;;;4.27;;
3718;SDS011;1875;52.492;6.860;2023-05-14T12:25:53;5.37;;;4.23;;
3718;SDS011;1875;52.492;6.860;2023-05-14T12:28:21;7.40;;;4.33;;
3718;SDS011;1875;52.492;6.860;2023-05-14T12:30:54;5.10;;;4.60;;
3718;SDS011;1875;52.492;6.860;2023-05-14T12:33:22;7.13;;;4.23;;
3718;SDS011;1875;52.492;6.860;2023-05-14T12:35:51;5.77;;;4.67;;
3718;SDS011;1875;52.492;6.860;2023-05-14T12:38:25;13.10;;;4.80;;
3718;SDS011;1875;52.492;6.860;2023-05-14T12:40:54;6.30;;;4.83;;
3718;SDS011;1875;52.492;6.860;2023-05-14T12:43:22;4.83;;;3.70;;
3718;SDS011;1875;52.492;6.860;2023-05-14T12:45:50;5.33;;;3.67;;
3718;SDS011;1875;52.492;6.860;2023-05-14T12:48:17;3.97;;;3.17;;
3718;SDS011;1875;52.492;6.860;2023-05-14T12:50:45;5.03;;;3.53;;
3718;SDS011;1875;52.492;6.860;2023-05-14T12:53:13;3.50;;;3.20;;
3718;SDS011;1875;52.492;6.860;2023-05-14T12:55:42;5.13;;;3.20;;
3718;SDS011;1875;52.492;6.860;2023-05-14T12:58:11;5.60;;;3.20;;
3718;SDS011;1875;52.492;6.860;2023-05-14T13:00:38;7.57;;;3.57;;
3718;SDS011;1875;52.492;6.860;2023-05-14T13:03:06;9.80;;;3.40;;
3718;SDS011;1875;52.492;6.860;2023-05-14T13:05:34;13.57;;;3.70;;
3718;SDS011;1875;52.492;6.860;2023-05-14T13:08:02;9.10;;;3.33;;
3718;SDS011;1875;52.492;6.860;2023-05-14T13:10:29;4.50;;;3.33;;
3718;SDS011;1875;52.492;6.860;2023-05-14T13:12:57;10.37;;;3.13;;
3718;SDS011;1875;52.492;6.860;2023-05-14T13:15:26;8.23;;;3.53;;
3718;SDS011;1875;52.492;6.860;2023-05-14T13:17:56;8.83;;;3.17;;
3718;SDS011;1875;52.492;6.860;2023-05-14T13:20:24;3.67;;;3.17;;
3718;SDS011;1875;52.492;6.860;2023-05-14T13:22:52;9.20;;;3.60;;
3718;SDS011;1875;52.492;6.860;2023-05-14T13:25:20;7.13;;;3.33;;
3718;SDS011;1875;52.492;6.860;2023-05-14T13:27:48;6.00;;;3.50;;
3718;SDS011;1875;52.492;6.860;2023-05-14T13:30:17;8.80;;;3.00;;
3718;SDS011;1875;52.492;6.860;2023-05-14T13:32:46;7.53;;;3.13;;
3718;SDS011;1875;52.492;6.860;2023-05-14T13:35:14;5.77;;;3.00;;
3718;SDS011;1875;52.492;6.860;2023-05-14T13:37:41;4.33;;;3.07;;
3718;SDS011;1875;52.492;6.860;2023-05-14T13:40:10;10.60;;;3.27;;
3718;SDS011;1875;52.492;6.860;2023-05-14T13:42:38;5.00;;;2.70;;
3718;SDS011;1875;52.492;6.860;2023-05-14T13:45:06;7.43;;;3.10;;
3718;SDS011;1875;52.492;6.860;2023-05-14T13:47:35;7.90;;;2.83;;
3718;SDS011;1875;52.492;6.860;2023-05-14T13:50:04;4.83;;;2.70;;
3718;SDS011;1875;52.492;6.860;2023-05-14T13:52:33;6.37;;;2.73;;
3718;SDS011;1875;52.492;6.860;2023-05-14T13:55:00;4.70;;;2.83;;
3718;SDS011;1875;52.492;6.860;2023-05-14T13:57:28;5.23;;;2.93;;
3718;SDS011;1875;52.492;6.860;2023-05-14T13:59:56;5.00;;;2.57;;
3718;SDS011;1875;52.492;6.860;2023-05-14T14:02:23;7.63;;;3.13;;
3718;SDS011;1875;52.492;6.860;2023-05-14T14:04:51;5.20;;;2.67;;
3718;SDS011;1875;52.492;6.860;2023-05-14T14:07:21;3.87;;;3.00;;
3718;SDS011;1875;52.492;6.860;2023-05-14T14:09:48;7.33;;;2.87;;
3718;SDS011;1875;52.492;6.860;2023-05-14T14:12:16;6.43;;;2.67;;
3718;SDS011;1875;52.492;6.860;2023-05-14T14:14:44;3.80;;;2.90;;
3718;SDS011;1875;52.492;6.860;2023-05-14T14:17:12;6.57;;;3.17;;
3718;SDS011;1875;52.492;6.860;2023-05-14T14:19:39;5.90;;;2.93;;
3718;SDS011;1875;52.492;6.860;2023-05-14T14:22:07;8.80;;;3.17;;
3718;SDS011;1875;52.492;6.860;2023-05-14T14:24:36;7.50;;;3.33;;
3718;SDS011;1875;52.492;6.860;2023-05-14T14:27:04;8.10;;;2.80;;
3718;SDS011;1875;52.492;6.860;2023-05-14T14:29:32;7.40;;;2.90;;
3718;SDS011;1875;52.492;6.860;2023-05-14T14:32:00;4.83;;;2.50;;
3718;SDS011;1875;52.492;6.860;2023-05-14T14:34:28;4.97;;;2.60;;
3718;SDS011;1875;52.492;6.860;2023-05-14T14:36:56;3.57;;;2.53;;
3718;SDS011;1875;52.492;6.860;2023-05-14T14:39:23;6.57;;;2.70;;
3718;SDS011;1875;52.492;6.860;2023-05-14T14:41:53;4.23;;;3.00;;
3718;SDS011;1875;52.492;6.860;2023-05-14T14:44:21;4.70;;;2.50;;
3718;SDS011;1875;52.492;6.860;2023-05-14T14:46:49;12.03;;;3.07;;
3718;SDS011;1875;52.492;6.860;2023-05-14T14:49:16;4.33;;;3.37;;
3718;SDS011;1875;52.492;6.860;2023-05-14T14:51:44;3.53;;;2.80;;
3718;SDS011;1875;52.492;6.860;2023-05-14T14:54:12;6.67;;;3.20;;
3718;SDS011;1875;52.492;6.860;2023-05-14T14:56:39;7.87;;;2.80;;
3718;SDS011;1875;52.492;6.860;2023-05-14T14:59:09;3.77;;;2.83;;
3718;SDS011;1875;52.492;6.860;2023-05-14T15:01:37;5.23;;;3.40;;
3718;SDS011;1875;52.492;6.860;2023-05-14T15:04:05;6.87;;;3.00;;
3718;SDS011;1875;52.492;6.860;2023-05-14T15:06:33;5.97;;;3.03;;